createdAt,value
2023-01-21T00:00:17.409Z,8.30
2023-01-21T00:02:46.357Z,8.47
2023-01-21T00:05:13.819Z,8.00
2023-01-21T00:07:41.238Z,7.90
2023-01-21T00:10:09.159Z,9.17
2023-01-21T00:12:36.544Z,7.47
2023-01-21T00:15:04.191Z,8.20
2023-01-21T00:17:35.216Z,7.63
2023-01-21T00:20:04.685Z,8.07
2023-01-21T00:22:32.126Z,9.00
2023-01-21T00:24:59.509Z,9.43
2023-01-21T00:27:26.979Z,7.30
2023-01-21T00:29:54.429Z,7.43
2023-01-21T00:32:21.931Z,7.73
2023-01-21T00:34:49.325Z,7.60
2023-01-21T00:37:18.173Z,7.10
2023-01-21T00:39:45.562Z,7.10
2023-01-21T00:42:13.173Z,7.30
2023-01-21T00:44:40.620Z,7.13
2023-01-21T00:47:08.280Z,6.73
2023-01-21T00:49:35.681Z,7.80
2023-01-21T00:52:03.189Z,7.73
2023-01-21T00:54:32.409Z,6.97
2023-01-21T00:56:59.860Z,7.00
2023-01-21T00:59:28.166Z,7.60
2023-01-21T01:01:55.729Z,7.07
2023-01-21T01:04:23.862Z,7.90
2023-01-21T01:06:51.317Z,6.17
2023-01-21T01:09:18.795Z,6.93
2023-01-21T01:11:47.891Z,6.73
2023-01-21T01:14:15.282Z,6.63
2023-01-21T01:16:42.758Z,7.20
2023-01-21T01:19:10.769Z,6.40
2023-01-21T01:21:38.224Z,6.20
2023-01-21T01:24:06.244Z,6.33
2023-01-21T01:26:35.437Z,6.57
2023-01-21T01:29:04.536Z,6.97
2023-01-21T01:31:32.142Z,6.60
2023-01-21T01:33:59.675Z,7.00
2023-01-21T01:36:27.108Z,6.40
2023-01-21T01:38:54.780Z,6.47
2023-01-21T01:41:23.438Z,6.70
2023-01-21T01:43:55.781Z,6.70
2023-01-21T01:46:25.960Z,6.57
2023-01-21T01:48:54.785Z,6.70
2023-01-21T01:51:24.262Z,6.27
2023-01-21T01:53:52.547Z,6.50
2023-01-21T01:56:20.321Z,6.30
2023-01-21T01:58:48.390Z,6.57
2023-01-21T02:01:15.811Z,6.20
2023-01-21T02:03:49.243Z,5.97
2023-01-21T02:06:19.857Z,5.80
2023-01-21T02:08:47.978Z,6.07
2023-01-21T02:11:16.090Z,6.20
2023-01-21T02:13:45.027Z,6.27
2023-01-21T02:16:19.686Z,6.47
2023-01-21T02:18:55.091Z,6.40
2023-01-21T02:21:35.095Z,6.50
2023-01-21T02:24:20.142Z,6.07
2023-01-21T02:27:14.773Z,6.10
2023-01-21T02:29:52.425Z,6.00
2023-01-21T02:32:30.062Z,5.90
2023-01-21T02:35:02.246Z,6.20
2023-01-21T02:37:34.360Z,6.00
2023-01-21T02:40:07.622Z,6.60
2023-01-21T02:42:38.097Z,5.47
2023-01-21T02:45:09.851Z,5.50
2023-01-21T02:47:41.474Z,5.93
2023-01-21T02:50:13.057Z,6.13
2023-01-21T02:52:40.519Z,5.63
2023-01-21T02:55:13.354Z,6.03
2023-01-21T02:57:43.097Z,6.07
2023-01-21T03:00:12.447Z,5.80
2023-01-21T03:02:47.806Z,5.63
2023-01-21T03:05:19.498Z,5.20
2023-01-21T03:07:49.023Z,5.90
2023-01-21T03:10:20.113Z,5.50
2023-01-21T03:12:51.095Z,5.67
2023-01-21T03:15:38.501Z,5.57
2023-01-21T03:18:07.658Z,5.97
2023-01-21T03:20:39.181Z,5.97
2023-01-21T03:23:09.352Z,5.90
2023-01-21T03:25:37.678Z,5.40
2023-01-21T03:28:07.235Z,5.50
2023-01-21T03:30:35.802Z,5.47
2023-01-21T03:33:03.735Z,5.40
2023-01-21T03:35:33.934Z,5.40
2023-01-21T03:38:05.115Z,5.87
2023-01-21T03:40:34.431Z,5.60
2023-01-21T03:43:02.061Z,5.43
2023-01-21T03:45:33.825Z,6.50
2023-01-21T03:48:05.508Z,5.60
2023-01-21T03:50:35.625Z,5.13
2023-01-21T03:53:04.615Z,5.37
2023-01-21T03:55:32.103Z,5.30
2023-01-21T03:57:59.515Z,5.20
2023-01-21T04:00:26.938Z,5.63
2023-01-21T04:02:54.419Z,6.00
2023-01-21T04:05:21.812Z,5.90
2023-01-21T04:07:49.256Z,5.30
2023-01-21T04:10:18.911Z,5.60
2023-01-21T04:12:46.455Z,6.40
2023-01-21T04:15:13.934Z,5.90
2023-01-21T04:17:41.356Z,5.60
2023-01-21T04:20:09.633Z,6.50
2023-01-21T04:22:37.034Z,8.50
2023-01-21T04:25:05.144Z,9.93
2023-01-21T04:27:33.869Z,9.67
2023-01-21T04:30:01.291Z,6.07
2023-01-21T04:32:28.744Z,6.87
2023-01-21T04:34:56.215Z,9.07
2023-01-21T04:37:23.624Z,8.67
2023-01-21T04:39:51.063Z,5.80
2023-01-21T04:42:18.465Z,6.60
2023-01-21T04:44:47.578Z,6.33
2023-01-21T04:47:15.009Z,6.40
2023-01-21T04:49:42.568Z,6.37
2023-01-21T04:52:10.240Z,6.23
2023-01-21T04:54:37.783Z,6.37
2023-01-21T04:57:05.293Z,6.27
2023-01-21T04:59:32.761Z,8.40
2023-01-21T05:02:01.569Z,6.40
2023-01-21T05:04:29.178Z,7.30
2023-01-21T05:06:56.652Z,8.00
2023-01-21T05:09:24.028Z,8.73
2023-01-21T05:11:51.426Z,7.13
2023-01-21T05:14:18.826Z,8.93
2023-01-21T05:16:46.566Z,9.00
2023-01-21T05:19:17.397Z,7.97
2023-01-21T05:21:44.852Z,6.37
2023-01-21T05:24:12.282Z,6.03
2023-01-21T05:26:39.750Z,5.70
2023-01-21T05:29:07.184Z,5.43
2023-01-21T05:31:34.711Z,5.17
2023-01-21T05:34:02.209Z,5.87
2023-01-21T05:36:31.044Z,5.30
2023-01-21T05:38:58.397Z,5.67
2023-01-21T05:41:25.905Z,6.57
2023-01-21T05:43:53.321Z,6.73
2023-01-21T05:46:20.741Z,6.07
2023-01-21T05:48:48.228Z,6.47
2023-01-21T05:51:15.738Z,6.30
2023-01-21T05:53:44.546Z,6.10
2023-01-21T05:56:11.939Z,5.27
2023-01-21T05:58:39.303Z,7.60
2023-01-21T06:01:06.738Z,6.67
2023-01-21T06:03:34.190Z,6.60
2023-01-21T06:06:01.587Z,8.00
2023-01-21T06:08:29.050Z,6.63
2023-01-21T06:10:57.821Z,6.63
2023-01-21T06:13:25.494Z,7.10
2023-01-21T06:15:54.778Z,7.03
2023-01-21T06:18:22.381Z,6.73
2023-01-21T06:20:49.844Z,7.70
2023-01-21T06:23:17.558Z,6.73
2023-01-21T06:25:44.943Z,7.27
2023-01-21T06:28:13.915Z,7.13
2023-01-21T06:30:41.340Z,6.40
2023-01-21T06:33:08.796Z,7.40
2023-01-21T06:35:37.143Z,7.37
2023-01-21T06:38:04.774Z,7.23
2023-01-21T06:40:32.214Z,7.53
2023-01-21T06:42:59.702Z,7.83
2023-01-21T06:45:28.499Z,7.77
2023-01-21T06:47:55.855Z,7.43
2023-01-21T06:50:23.343Z,7.63
2023-01-21T06:52:50.838Z,6.77
2023-01-21T06:55:18.411Z,6.60
2023-01-21T06:57:46.073Z,7.83
2023-01-21T07:00:14.231Z,7.40
2023-01-21T07:02:43.126Z,7.60
2023-01-21T07:05:10.759Z,9.57
2023-01-21T07:07:38.280Z,8.83
2023-01-21T07:10:06.075Z,8.60
2023-01-21T07:12:33.497Z,8.23
2023-01-21T07:15:00.969Z,7.83
2023-01-21T07:17:28.423Z,7.57
2023-01-21T07:19:57.241Z,7.90
2023-01-21T07:22:24.650Z,7.90
2023-01-21T07:24:52.080Z,7.80
2023-01-21T07:27:19.515Z,8.23
2023-01-21T07:29:46.909Z,7.67
2023-01-21T07:32:14.447Z,8.10
2023-01-21T07:34:41.859Z,9.50
2023-01-21T07:37:10.605Z,8.57
2023-01-21T07:39:38.049Z,9.50
2023-01-21T07:42:05.518Z,9.23
2023-01-21T07:44:33.991Z,9.50
2023-01-21T07:47:01.472Z,9.50
2023-01-21T07:49:28.897Z,10.07
2023-01-21T07:51:57.711Z,9.60
2023-01-21T07:54:26.485Z,9.57
2023-01-21T07:56:53.861Z,11.00
2023-01-21T07:59:21.455Z,11.20
2023-01-21T08:01:49.045Z,11.13
2023-01-21T08:04:16.533Z,10.43
2023-01-21T08:06:44.060Z,12.57
2023-01-21T08:09:11.474Z,12.10
2023-01-21T08:11:40.453Z,12.33
2023-01-21T08:14:07.871Z,9.10
2023-01-21T08:16:35.358Z,9.37
2023-01-21T08:19:02.961Z,8.23
2023-01-21T08:21:30.430Z,9.20
2023-01-21T08:23:57.855Z,11.13
2023-01-21T08:26:25.807Z,11.93
2023-01-21T08:28:55.589Z,11.90
2023-01-21T08:31:23.003Z,10.83
2023-01-21T08:33:50.387Z,9.67
2023-01-21T08:36:17.819Z,8.93
2023-01-21T08:38:47.143Z,8.80
2023-01-21T08:41:16.545Z,10.50
2023-01-21T08:43:43.986Z,9.73
2023-01-21T08:46:12.854Z,9.57
2023-01-21T08:48:40.632Z,8.70
2023-01-21T08:51:08.122Z,9.23
2023-01-21T08:53:35.592Z,9.60
2023-01-21T08:56:03.922Z,9.43
2023-01-21T08:58:32.447Z,8.93
2023-01-21T09:00:59.850Z,8.40
2023-01-21T09:03:29.800Z,9.00
2023-01-21T09:06:00.815Z,8.50
2023-01-21T09:08:28.235Z,9.60
2023-01-21T09:11:03.850Z,8.53
2023-01-21T09:13:32.038Z,9.20
2023-01-21T09:15:59.737Z,8.77
2023-01-21T09:18:28.583Z,9.50
2023-01-21T09:21:00.578Z,9.13
2023-01-21T09:23:28.408Z,8.50
2023-01-21T09:25:56.758Z,8.80
2023-01-21T09:28:24.519Z,8.57
2023-01-21T09:30:56.699Z,9.60
2023-01-21T09:33:24.296Z,8.40
2023-01-21T09:35:55.419Z,9.50
2023-01-21T09:38:22.767Z,8.30
2023-01-21T09:40:50.652Z,9.00
2023-01-21T09:43:20.887Z,9.60
2023-01-21T09:45:49.324Z,9.20
2023-01-21T09:48:21.022Z,8.93
2023-01-21T09:50:50.489Z,9.00
2023-01-21T09:53:27.425Z,8.70
2023-01-21T09:55:56.487Z,9.60
2023-01-21T09:58:25.867Z,8.80
2023-01-21T10:00:56.059Z,8.23
2023-01-21T10:03:27.325Z,8.30
2023-01-21T10:06:09.345Z,9.10
2023-01-21T10:08:44.663Z,9.17
2023-01-21T10:11:20.342Z,8.93
2023-01-21T10:13:58.590Z,8.90
2023-01-21T10:16:28.049Z,9.30
2023-01-21T10:18:56.508Z,10.90
2023-01-21T10:21:29.153Z,10.77
2023-01-21T10:24:00.829Z,10.27
2023-01-21T10:26:29.971Z,9.53
2023-01-21T10:28:57.701Z,10.30
2023-01-21T10:31:26.562Z,9.67
2023-01-21T10:33:57.629Z,9.63
2023-01-21T10:36:37.414Z,9.03
2023-01-21T10:39:10.479Z,9.00
2023-01-21T10:41:46.289Z,9.20
2023-01-21T10:44:20.102Z,9.43
2023-01-21T10:46:51.940Z,9.70
2023-01-21T10:49:24.546Z,9.03
2023-01-21T10:51:55.084Z,9.20
2023-01-21T10:54:29.080Z,9.00
2023-01-21T10:57:01.071Z,9.83
2023-01-21T10:59:32.914Z,9.20
2023-01-21T11:02:06.073Z,10.50
2023-01-21T11:04:34.730Z,9.57
2023-01-21T11:07:03.145Z,10.13
2023-01-21T11:09:33.732Z,9.03
2023-01-21T11:12:02.888Z,9.03
2023-01-21T11:14:30.359Z,8.87
2023-01-21T11:16:58.495Z,8.60
2023-01-21T11:19:27.732Z,8.27
2023-01-21T11:22:03.888Z,7.30
2023-01-21T11:24:42.461Z,7.70
2023-01-21T11:27:18.465Z,8.47
2023-01-21T11:29:45.953Z,7.57
2023-01-21T11:32:17.873Z,8.83
2023-01-21T11:34:45.834Z,8.50
2023-01-21T11:37:21.284Z,8.37
2023-01-21T11:39:52.113Z,8.90
2023-01-21T11:42:19.832Z,8.30
2023-01-21T11:44:54.098Z,7.67
2023-01-21T11:47:28.846Z,7.80
2023-01-21T11:49:56.281Z,7.57
2023-01-21T11:52:23.699Z,8.27
2023-01-21T11:54:52.586Z,8.70
2023-01-21T11:57:27.812Z,7.30
2023-01-21T11:59:57.512Z,6.63
2023-01-21T12:02:27.025Z,8.87
2023-01-21T12:04:56.468Z,8.40
2023-01-21T12:07:26.259Z,7.47
2023-01-21T12:10:00.684Z,7.30
2023-01-21T12:12:35.080Z,7.17
2023-01-21T12:15:08.128Z,7.40
2023-01-21T12:17:43.268Z,7.13
2023-01-21T12:20:18.606Z,7.00
2023-01-21T12:22:53.430Z,7.00
2023-01-21T12:25:26.088Z,7.43
2023-01-21T12:28:00.637Z,6.47
2023-01-21T12:30:32.447Z,6.90
2023-01-21T12:33:02.183Z,7.67
2023-01-21T12:35:32.059Z,6.50
2023-01-21T12:38:01.533Z,5.50
2023-01-21T12:40:31.506Z,6.13
2023-01-21T12:43:01.366Z,5.90
2023-01-21T12:45:29.812Z,5.60
2023-01-21T12:47:59.327Z,5.07
2023-01-21T12:50:29.324Z,5.57
2023-01-21T12:53:02.880Z,5.30
2023-01-21T12:55:37.714Z,5.00
2023-01-21T12:58:06.742Z,4.90
2023-01-21T13:00:36.133Z,5.80
2023-01-21T13:03:10.545Z,5.20
2023-01-21T13:05:43.114Z,5.63
2023-01-21T13:08:28.624Z,5.27
2023-01-21T13:11:00.655Z,5.30
2023-01-21T13:13:30.905Z,4.57
2023-01-21T13:15:59.812Z,5.60
2023-01-21T13:18:30.253Z,5.30
2023-01-21T13:21:01.586Z,4.70
2023-01-21T13:23:36.150Z,6.37
2023-01-21T13:26:09.622Z,5.00
2023-01-21T13:28:40.348Z,4.70
2023-01-21T13:31:11.276Z,4.80
2023-01-21T13:33:43.894Z,4.87
2023-01-21T13:36:15.549Z,5.27
2023-01-21T13:38:46.890Z,5.20
2023-01-21T13:41:21.144Z,5.20
2023-01-21T13:43:55.351Z,5.43
2023-01-21T13:46:28.552Z,5.60
2023-01-21T13:49:18.159Z,5.50
2023-01-21T13:51:51.024Z,6.10
2023-01-21T13:54:24.229Z,5.97
2023-01-21T13:57:03.830Z,5.87
2023-01-21T13:59:33.526Z,6.47
2023-01-21T14:02:02.832Z,6.27
2023-01-21T14:04:33.769Z,6.23
2023-01-21T14:07:03.264Z,6.60
2023-01-21T14:09:34.871Z,7.43
2023-01-21T14:12:06.327Z,6.17
2023-01-21T14:14:43.339Z,6.70
2023-01-21T14:17:19.902Z,6.60
2023-01-21T14:20:04.669Z,6.90
2023-01-21T14:22:40.466Z,6.50
2023-01-21T14:25:12.000Z,7.50
2023-01-21T14:27:47.287Z,7.23
2023-01-21T14:30:16.851Z,7.27
2023-01-21T14:32:45.808Z,6.87
2023-01-21T14:35:19.809Z,6.73
2023-01-21T14:37:50.546Z,7.97
2023-01-21T14:40:19.580Z,7.40
2023-01-21T14:42:50.085Z,7.90
2023-01-21T14:45:19.302Z,6.60
2023-01-21T14:47:48.910Z,6.77
2023-01-21T14:50:34.920Z,7.80
2023-01-21T14:53:10.597Z,7.53
2023-01-21T14:55:38.134Z,7.67
2023-01-21T14:58:07.254Z,7.57
2023-01-21T15:00:35.731Z,7.60
2023-01-21T15:03:15.080Z,6.60
2023-01-21T15:05:43.366Z,7.00
2023-01-21T15:08:15.086Z,7.63
2023-01-21T15:10:42.583Z,8.17
2023-01-21T15:13:26.526Z,7.53
2023-01-21T15:16:05.844Z,7.50
2023-01-21T15:18:36.179Z,8.07
2023-01-21T15:21:23.653Z,8.37
2023-01-21T15:23:51.309Z,8.10
2023-01-21T15:26:20.688Z,7.67
2023-01-21T15:28:50.908Z,8.27
2023-01-21T15:31:37.260Z,8.23
2023-01-21T15:34:08.055Z,7.73
2023-01-21T15:36:44.079Z,8.47
2023-01-21T15:39:13.828Z,8.50
2023-01-21T15:41:44.028Z,9.40
2023-01-21T15:44:23.383Z,8.90
2023-01-21T15:46:55.008Z,9.17
2023-01-21T15:49:31.546Z,7.47
2023-01-21T15:52:02.860Z,7.63
2023-01-21T15:54:33.393Z,8.50
2023-01-21T15:57:11.743Z,12.30
2023-01-21T15:59:52.464Z,11.67
2023-01-21T16:02:21.943Z,10.80
2023-01-21T16:04:54.997Z,8.60
2023-01-21T16:07:27.998Z,8.93
2023-01-21T16:10:03.223Z,10.10
2023-01-21T16:12:34.451Z,8.13
2023-01-21T16:15:08.443Z,8.33
2023-01-21T16:17:43.802Z,9.47
2023-01-21T16:20:13.048Z,9.70
2023-01-21T16:22:42.392Z,9.37
2023-01-21T16:25:11.617Z,9.00
2023-01-21T16:27:39.080Z,8.70
2023-01-21T16:30:09.254Z,9.50
2023-01-21T16:32:37.915Z,10.23
2023-01-21T16:35:05.780Z,9.80
2023-01-21T16:37:33.889Z,9.83
2023-01-21T16:40:20.132Z,11.10
2023-01-21T16:42:47.615Z,10.40
2023-01-21T16:45:18.316Z,9.97
2023-01-21T16:47:47.044Z,9.53
2023-01-21T16:50:19.877Z,10.93
2023-01-21T16:52:47.472Z,11.63
2023-01-21T16:55:19.230Z,11.87
2023-01-21T16:57:49.584Z,9.90
2023-01-21T17:00:29.466Z,10.17
2023-01-21T17:02:57.187Z,9.57
2023-01-21T17:05:25.690Z,10.10
2023-01-21T17:07:56.162Z,9.20
2023-01-21T17:10:25.524Z,9.40
2023-01-21T17:12:54.464Z,9.30
2023-01-21T17:15:26.537Z,10.70
2023-01-21T17:17:56.794Z,10.27
2023-01-21T17:20:35.180Z,9.20
2023-01-21T17:23:03.540Z,9.37
2023-01-21T17:25:30.972Z,8.70
2023-01-21T17:27:58.385Z,8.00
2023-01-21T17:30:30.509Z,8.07
2023-01-21T17:32:59.919Z,8.20
2023-01-21T17:35:28.264Z,7.67
2023-01-21T17:37:56.909Z,8.37
2023-01-21T17:40:25.546Z,7.83
2023-01-21T17:42:53.398Z,8.30
2023-01-21T17:45:24.289Z,8.60
2023-01-21T17:48:08.040Z,8.33
2023-01-21T17:50:38.569Z,8.20
2023-01-21T17:53:09.960Z,9.30
2023-01-21T17:55:38.221Z,8.70
2023-01-21T17:58:07.292Z,9.07
2023-01-21T18:00:40.999Z,10.20
2023-01-21T18:03:08.647Z,9.60
2023-01-21T18:05:38.268Z,10.73
2023-01-21T18:08:11.697Z,10.20
2023-01-21T18:10:39.419Z,11.20
2023-01-21T18:13:06.829Z,10.70
2023-01-21T18:15:34.302Z,11.20
2023-01-21T18:18:03.482Z,10.70
2023-01-21T18:20:31.285Z,11.43
2023-01-21T18:23:00.431Z,11.77
2023-01-21T18:25:29.279Z,11.03
2023-01-21T18:27:56.901Z,11.00
2023-01-21T18:30:25.566Z,12.00
2023-01-21T18:32:53.286Z,12.33
2023-01-21T18:35:21.482Z,11.63
2023-01-21T18:37:49.183Z,12.40
2023-01-21T18:40:18.272Z,12.00
2023-01-21T18:42:47.866Z,11.07
2023-01-21T18:45:16.540Z,11.30
2023-01-21T18:47:44.200Z,10.70
2023-01-21T18:50:13.861Z,11.50
2023-01-21T18:52:41.390Z,11.17
2023-01-21T18:55:09.462Z,10.83
2023-01-21T18:57:36.992Z,10.77
2023-01-21T19:00:14.476Z,10.03
2023-01-21T19:02:41.847Z,11.37
2023-01-21T19:05:09.439Z,12.20
2023-01-21T19:07:36.904Z,13.03
2023-01-21T19:10:04.599Z,12.10
2023-01-21T19:12:32.106Z,12.27
2023-01-21T19:14:59.743Z,11.30
2023-01-21T19:17:29.866Z,11.80
2023-01-21T19:19:57.636Z,10.83
2023-01-21T19:22:25.427Z,10.40
2023-01-21T19:24:52.877Z,11.37
2023-01-21T19:27:23.634Z,12.83
2023-01-21T19:29:51.174Z,12.70
2023-01-21T19:32:18.720Z,12.07
2023-01-21T19:34:47.611Z,13.40
2023-01-21T19:37:15.471Z,12.93
2023-01-21T19:39:42.967Z,13.00
2023-01-21T19:42:10.789Z,12.00
2023-01-21T19:44:39.308Z,13.03
2023-01-21T19:47:07.608Z,11.43
2023-01-21T19:49:35.083Z,11.50
2023-01-21T19:52:04.829Z,11.30
2023-01-21T19:54:32.243Z,10.30
2023-01-21T19:56:59.899Z,10.03
2023-01-21T19:59:27.363Z,9.30
2023-01-21T20:01:54.840Z,9.80
2023-01-21T20:04:22.382Z,9.87
2023-01-21T20:06:49.843Z,9.20
2023-01-21T20:09:20.173Z,10.77
2023-01-21T20:11:47.602Z,9.40
2023-01-21T20:14:15.002Z,10.23
2023-01-21T20:16:45.104Z,9.77
2023-01-21T20:19:14.791Z,9.70
2023-01-21T20:21:55.073Z,10.70
2023-01-21T20:24:33.947Z,10.93
2023-01-21T20:27:02.043Z,10.80
2023-01-21T20:29:29.423Z,11.77
2023-01-21T20:31:56.872Z,9.97
2023-01-21T20:34:24.309Z,11.67
2023-01-21T20:36:51.880Z,11.93
2023-01-21T20:39:19.479Z,11.50
2023-01-21T20:41:48.266Z,12.03
2023-01-21T20:44:15.682Z,9.87
2023-01-21T20:46:45.459Z,10.70
2023-01-21T20:49:13.341Z,11.40
2023-01-21T20:51:40.803Z,9.93
2023-01-21T20:54:08.239Z,10.23
2023-01-21T20:56:35.697Z,12.30
2023-01-21T20:59:04.640Z,10.80
2023-01-21T21:01:34.784Z,11.53
2023-01-21T21:04:02.386Z,10.87
2023-01-21T21:06:30.001Z,11.60
2023-01-21T21:08:57.400Z,12.47
2023-01-21T21:11:24.871Z,12.70
2023-01-21T21:13:52.801Z,13.07
2023-01-21T21:16:22.677Z,12.30
2023-01-21T21:18:50.232Z,10.80
2023-01-21T21:21:18.308Z,12.00
2023-01-21T21:23:46.748Z,11.77
2023-01-21T21:26:18.932Z,11.60
2023-01-21T21:28:46.915Z,13.93
2023-01-21T21:31:14.944Z,12.40
2023-01-21T21:33:43.817Z,12.63
2023-01-21T21:36:15.163Z,12.50
2023-01-21T21:38:42.717Z,12.40
2023-01-21T21:41:27.602Z,11.57
2023-01-21T21:43:55.018Z,12.40
2023-01-21T21:46:39.930Z,11.40
2023-01-21T21:49:08.688Z,11.13
2023-01-21T21:51:38.057Z,12.03
2023-01-21T21:54:05.768Z,11.17
2023-01-21T21:56:33.313Z,11.20
2023-01-21T21:59:00.828Z,11.23
2023-01-21T22:01:30.563Z,11.13
2023-01-21T22:03:59.094Z,10.70
2023-01-21T22:06:27.940Z,11.30
2023-01-21T22:08:57.312Z,12.20
2023-01-21T22:11:25.623Z,12.30
2023-01-21T22:13:53.477Z,12.73
2023-01-21T22:16:21.700Z,13.13
2023-01-21T22:18:49.197Z,12.07
2023-01-21T22:21:18.035Z,11.67
2023-01-21T22:23:46.997Z,11.60
2023-01-21T22:26:16.363Z,12.07
2023-01-21T22:28:44.514Z,11.80
2023-01-21T22:31:14.041Z,11.90
2023-01-21T22:33:41.654Z,11.77
2023-01-21T22:36:10.280Z,11.87
2023-01-21T22:38:40.525Z,11.47
2023-01-21T22:41:10.205Z,12.00
2023-01-21T22:43:39.422Z,12.50
2023-01-21T22:46:07.021Z,11.33
2023-01-21T22:48:34.548Z,11.57
2023-01-21T22:51:02.099Z,11.90
2023-01-21T22:53:29.891Z,11.23
2023-01-21T22:55:57.808Z,12.30
2023-01-21T22:58:27.142Z,13.90
2023-01-21T23:00:55.162Z,12.93
2023-01-21T23:03:22.947Z,11.00
2023-01-21T23:05:50.755Z,12.03
2023-01-21T23:08:18.844Z,12.07
2023-01-21T23:10:46.623Z,11.53
2023-01-21T23:13:14.728Z,11.93
2023-01-21T23:15:44.013Z,12.00
2023-01-21T23:18:11.956Z,12.60
2023-01-21T23:20:39.451Z,11.77
2023-01-21T23:23:06.840Z,12.07
2023-01-21T23:25:34.242Z,11.50
2023-01-21T23:28:01.997Z,11.37
2023-01-21T23:30:30.052Z,11.80
2023-01-21T23:33:00.233Z,11.80
2023-01-21T23:35:27.742Z,10.40
2023-01-21T23:37:55.143Z,11.60
2023-01-21T23:40:22.766Z,10.67
2023-01-21T23:42:50.339Z,11.23
2023-01-21T23:45:17.996Z,11.40
2023-01-21T23:47:47.235Z,11.20
2023-01-21T23:50:16.756Z,12.77
2023-01-21T23:52:44.512Z,10.90
2023-01-21T23:55:11.958Z,10.80
2023-01-21T23:57:39.454Z,10.17
